sensor_id;sensor_type;location;lat;lon;timestamp;temperature;humidity
48860;DHT22;34679;51.436;-2.518;2023-06-22T00:00:58;16.20;99.90
48860;DHT22;34679;51.436;-2.518;2023-06-22T00:03:25;16.10;99.90
48860;DHT22;34679;51.436;-2.518;2023-06-22T00:05:51;16.10;99.90
48860;DHT22;34679;51.436;-2.518;2023-06-22T00:08:18;16.20;99.90
48860;DHT22;34679;51.436;-2.518;2023-06-22T00:10:44;16.20;99.90
48860;DHT22;34679;51.436;-2.518;2023-06-22T00:13:11;16.10;99.90
48860;DHT22;34679;51.436;-2.518;2023-06-22T00:15:38;16.10;99.90
48860;DHT22;34679;51.436;-2.518;2023-06-22T00:18:08;16.10;99.90
48860;DHT22;34679;51.436;-2.518;2023-06-22T00:20:34;16.00;99.90
48860;DHT22;34679;51.436;-2.518;2023-06-22T00:23:03;15.90;99.90
48860;DHT22;34679;51.436;-2.518;2023-06-22T00:25:35;15.90;99.90
48860;DHT22;34679;51.436;-2.518;2023-06-22T00:28:02;15.90;99.90
48860;DHT22;34679;51.436;-2.518;2023-06-22T00:30:28;15.80;99.90
48860;DHT22;34679;51.436;-2.518;2023-06-22T00:32:54;15.80;99.90
48860;DHT22;34679;51.436;-2.518;2023-06-22T00:35:20;15.80;99.90
48860;DHT22;34679;51.436;-2.518;2023-06-22T00:37:46;15.80;99.90
48860;DHT22;34679;51.436;-2.518;2023-06-22T00:40:11;15.70;99.90
48860;DHT22;34679;51.436;-2.518;2023-06-22T00:42:40;15.70;99.90
48860;DHT22;34679;51.436;-2.518;2023-06-22T00:45:07;15.70;99.90
48860;DHT22;34679;51.436;-2.518;2023-06-22T00:47:36;15.60;99.90
48860;DHT22;34679;51.436;-2.518;2023-06-22T00:50:05;15.60;99.90
48860;DHT22;34679;51.436;-2.518;2023-06-22T00:52:33;15.50;99.90
48860;DHT22;34679;51.436;-2.518;2023-06-22T00:55:02;15.50;99.90
48860;DHT22;34679;51.436;-2.518;2023-06-22T00:57:28;15.60;99.90
48860;DHT22;34679;51.436;-2.518;2023-06-22T00:59:54;15.60;99.90
48860;DHT22;34679;51.436;-2.518;2023-06-22T01:02:20;15.50;99.90
48860;DHT22;34679;51.436;-2.518;2023-06-22T01:04:46;15.50;99.90
48860;DHT22;34679;51.436;-2.518;2023-06-22T01:07:27;15.50;99.90
48860;DHT22;34679;51.436;-2.518;2023-06-22T01:13:02;15.40;99.90
48860;DHT22;34679;51.436;-2.518;2023-06-22T01:15:55;15.40;99.90
48860;DHT22;34679;51.436;-2.518;2023-06-22T01:18:22;15.40;99.90
48860;DHT22;34679;51.436;-2.518;2023-06-22T01:20:53;15.30;99.90
48860;DHT22;34679;51.436;-2.518;2023-06-22T01:26:08;15.30;99.90
48860;DHT22;34679;51.436;-2.518;2023-06-22T01:31:11;15.20;99.90
48860;DHT22;34679;51.436;-2.518;2023-06-22T01:33:41;15.20;99.90
48860;DHT22;34679;51.436;-2.518;2023-06-22T01:36:07;15.20;99.90
48860;DHT22;34679;51.436;-2.518;2023-06-22T01:38:34;15.20;99.90
48860;DHT22;34679;51.436;-2.518;2023-06-22T01:41:01;15.20;99.90
48860;DHT22;34679;51.436;-2.518;2023-06-22T01:43:28;15.20;99.90
48860;DHT22;34679;51.436;-2.518;2023-06-22T01:45:55;15.20;99.90
48860;DHT22;34679;51.436;-2.518;2023-06-22T01:48:22;15.10;99.90
48860;DHT22;34679;51.436;-2.518;2023-06-22T01:50:48;15.10;99.90
48860;DHT22;34679;51.436;-2.518;2023-06-22T01:53:14;15.20;99.90
48860;DHT22;34679;51.436;-2.518;2023-06-22T01:55:40;15.20;99.90
48860;DHT22;34679;51.436;-2.518;2023-06-22T01:58:06;15.20;99.90
48860;DHT22;34679;51.436;-2.518;2023-06-22T02:00:34;15.30;99.90
48860;DHT22;34679;51.436;-2.518;2023-06-22T02:03:08;15.20;99.90
48860;DHT22;34679;51.436;-2.518;2023-06-22T02:05:38;15.20;99.90
48860;DHT22;34679;51.436;-2.518;2023-06-22T02:08:16;15.20;99.90
48860;DHT22;34679;51.436;-2.518;2023-06-22T02:10:44;15.20;99.90
48860;DHT22;34679;51.436;-2.518;2023-06-22T02:13:11;15.20;99.90
48860;DHT22;34679;51.436;-2.518;2023-06-22T02:15:38;15.20;99.90
48860;DHT22;34679;51.436;-2.518;2023-06-22T02:18:04;15.30;99.90
48860;DHT22;34679;51.436;-2.518;2023-06-22T02:20:31;15.20;99.90
48860;DHT22;34679;51.436;-2.518;2023-06-22T02:22:56;15.20;99.90
48860;DHT22;34679;51.436;-2.518;2023-06-22T02:25:22;15.10;99.90
48860;DHT22;34679;51.436;-2.518;2023-06-22T02:27:48;15.10;99.90
48860;DHT22;34679;51.436;-2.518;2023-06-22T02:30:15;15.20;99.90
48860;DHT22;34679;51.436;-2.518;2023-06-22T02:32:42;15.10;99.90
48860;DHT22;34679;51.436;-2.518;2023-06-22T02:35:11;15.10;99.90
48860;DHT22;34679;51.436;-2.518;2023-06-22T02:37:38;15.10;99.90
48860;DHT22;34679;51.436;-2.518;2023-06-22T02:40:07;15.10;99.90
48860;DHT22;34679;51.436;-2.518;2023-06-22T02:42:34;15.10;99.90
48860;DHT22;34679;51.436;-2.518;2023-06-22T02:45:01;15.00;99.90
48860;DHT22;34679;51.436;-2.518;2023-06-22T02:47:26;15.00;99.90
48860;DHT22;34679;51.436;-2.518;2023-06-22T02:49:52;15.00;99.90
48860;DHT22;34679;51.436;-2.518;2023-06-22T02:52:18;15.00;99.90
48860;DHT22;34679;51.436;-2.518;2023-06-22T02:54:43;14.90;99.90
48860;DHT22;34679;51.436;-2.518;2023-06-22T02:57:11;14.90;99.90
48860;DHT22;34679;51.436;-2.518;2023-06-22T02:59:42;14.90;99.90
48860;DHT22;34679;51.436;-2.518;2023-06-22T03:02:09;15.00;99.90
48860;DHT22;34679;51.436;-2.518;2023-06-22T03:04:35;14.90;99.90
48860;DHT22;34679;51.436;-2.518;2023-06-22T03:07:01;14.90;99.90
48860;DHT22;34679;51.436;-2.518;2023-06-22T03:09:28;14.80;99.90
48860;DHT22;34679;51.436;-2.518;2023-06-22T03:11:54;14.80;99.90
48860;DHT22;34679;51.436;-2.518;2023-06-22T03:14:20;14.80;99.90
48860;DHT22;34679;51.436;-2.518;2023-06-22T03:16:46;14.90;99.90
48860;DHT22;34679;51.436;-2.518;2023-06-22T03:19:12;14.90;99.90
48860;DHT22;34679;51.436;-2.518;2023-06-22T03:21:38;14.80;99.90
48860;DHT22;34679;51.436;-2.518;2023-06-22T03:24:07;14.80;99.90
48860;DHT22;34679;51.436;-2.518;2023-06-22T03:26:33;14.70;99.90
48860;DHT22;34679;51.436;-2.518;2023-06-22T03:28:58;14.70;99.90
48860;DHT22;34679;51.436;-2.518;2023-06-22T03:31:24;14.80;99.90
48860;DHT22;34679;51.436;-2.518;2023-06-22T03:33:50;14.70;99.90
48860;DHT22;34679;51.436;-2.518;2023-06-22T03:36:17;14.70;99.90
48860;DHT22;34679;51.436;-2.518;2023-06-22T03:38:49;14.70;99.90
48860;DHT22;34679;51.436;-2.518;2023-06-22T03:41:15;14.70;99.90
48860;DHT22;34679;51.436;-2.518;2023-06-22T03:43:40;14.70;99.90
48860;DHT22;34679;51.436;-2.518;2023-06-22T03:46:08;14.60;99.90
48860;DHT22;34679;51.436;-2.518;2023-06-22T03:48:34;14.60;99.90
48860;DHT22;34679;51.436;-2.518;2023-06-22T03:51:00;14.60;99.90
48860;DHT22;34679;51.436;-2.518;2023-06-22T03:53:26;14.60;99.90
48860;DHT22;34679;51.436;-2.518;2023-06-22T03:55:52;14.50;99.90
48860;DHT22;34679;51.436;-2.518;2023-06-22T03:58:19;14.50;99.90
48860;DHT22;34679;51.436;-2.518;2023-06-22T04:00:49;14.50;99.90
48860;DHT22;34679;51.436;-2.518;2023-06-22T04:03:15;14.50;99.90
48860;DHT22;34679;51.436;-2.518;2023-06-22T04:05:41;14.50;99.90
48860;DHT22;34679;51.436;-2.518;2023-06-22T04:08:08;14.50;99.90
48860;DHT22;34679;51.436;-2.518;2023-06-22T04:10:34;14.50;99.90
48860;DHT22;34679;51.436;-2.518;2023-06-22T04:13:00;14.50;99.90
48860;DHT22;34679;51.436;-2.518;2023-06-22T04:15:26;14.50;99.90
48860;DHT22;34679;51.436;-2.518;2023-06-22T04:17:51;14.50;99.90
48860;DHT22;34679;51.436;-2.518;2023-06-22T04:20:17;14.50;99.90
48860;DHT22;34679;51.436;-2.518;2023-06-22T04:22:43;14.60;99.90
48860;DHT22;34679;51.436;-2.518;2023-06-22T04:25:08;14.70;99.90
48860;DHT22;34679;51.436;-2.518;2023-06-22T04:27:34;14.70;99.90
48860;DHT22;34679;51.436;-2.518;2023-06-22T04:30:06;14.90;99.90
48860;DHT22;34679;51.436;-2.518;2023-06-22T04:32:33;15.00;99.90
48860;DHT22;34679;51.436;-2.518;2023-06-22T04:34:59;15.10;99.90
48860;DHT22;34679;51.436;-2.518;2023-06-22T04:37:28;15.10;99.90
48860;DHT22;34679;51.436;-2.518;2023-06-22T04:39:53;15.20;99.90
48860;DHT22;34679;51.436;-2.518;2023-06-22T04:42:19;15.20;99.90
48860;DHT22;34679;51.436;-2.518;2023-06-22T04:44:45;15.20;99.90
48860;DHT22;34679;51.436;-2.518;2023-06-22T04:47:11;15.20;99.90
48860;DHT22;34679;51.436;-2.518;2023-06-22T04:49:36;15.20;99.90
48860;DHT22;34679;51.436;-2.518;2023-06-22T04:52:07;15.20;99.90
48860;DHT22;34679;51.436;-2.518;2023-06-22T04:54:33;15.20;99.90
48860;DHT22;34679;51.436;-2.518;2023-06-22T04:57:00;15.30;99.90
48860;DHT22;34679;51.436;-2.518;2023-06-22T04:59:28;15.50;99.90
48860;DHT22;34679;51.436;-2.518;2023-06-22T05:02:00;15.70;99.90
48860;DHT22;34679;51.436;-2.518;2023-06-22T05:04:27;15.70;99.90
48860;DHT22;34679;51.436;-2.518;2023-06-22T05:07:01;15.80;99.90
48860;DHT22;34679;51.436;-2.518;2023-06-22T05:09:28;16.40;99.90
48860;DHT22;34679;51.436;-2.518;2023-06-22T05:11:53;16.70;99.90
48860;DHT22;34679;51.436;-2.518;2023-06-22T05:14:19;16.90;99.90
48860;DHT22;34679;51.436;-2.518;2023-06-22T05:16:45;17.10;99.90
48860;DHT22;34679;51.436;-2.518;2023-06-22T05:19:11;17.70;99.90
48860;DHT22;34679;51.436;-2.518;2023-06-22T05:21:38;18.50;99.90
48860;DHT22;34679;51.436;-2.518;2023-06-22T05:24:04;19.30;99.90
48860;DHT22;34679;51.436;-2.518;2023-06-22T05:26:31;19.90;99.90
48860;DHT22;34679;51.436;-2.518;2023-06-22T05:28:57;20.50;99.90
48860;DHT22;34679;51.436;-2.518;2023-06-22T05:31:23;21.10;99.90
48860;DHT22;34679;51.436;-2.518;2023-06-22T05:33:51;21.40;99.90
48860;DHT22;34679;51.436;-2.518;2023-06-22T05:36:17;22.10;99.90
48860;DHT22;34679;51.436;-2.518;2023-06-22T05:38:45;22.70;99.90
48860;DHT22;34679;51.436;-2.518;2023-06-22T05:41:11;23.00;99.90
48860;DHT22;34679;51.436;-2.518;2023-06-22T05:43:37;23.30;99.90
48860;DHT22;34679;51.436;-2.518;2023-06-22T05:46:03;23.80;99.90
48860;DHT22;34679;51.436;-2.518;2023-06-22T05:48:29;24.10;99.90
48860;DHT22;34679;51.436;-2.518;2023-06-22T05:50:55;24.70;99.90
48860;DHT22;34679;51.436;-2.518;2023-06-22T05:53:21;24.90;99.90
48860;DHT22;34679;51.436;-2.518;2023-06-22T05:55:47;24.80;99.90
48860;DHT22;34679;51.436;-2.518;2023-06-22T05:58:13;25.50;99.90
48860;DHT22;34679;51.436;-2.518;2023-06-22T06:00:39;25.80;99.90
48860;DHT22;34679;51.436;-2.518;2023-06-22T06:03:07;26.10;99.90
48860;DHT22;34679;51.436;-2.518;2023-06-22T06:05:34;26.50;99.90
48860;DHT22;34679;51.436;-2.518;2023-06-22T06:08:01;26.60;99.90
48860;DHT22;34679;51.436;-2.518;2023-06-22T06:10:27;26.60;99.90
48860;DHT22;34679;51.436;-2.518;2023-06-22T06:12:55;26.50;99.90
48860;DHT22;34679;51.436;-2.518;2023-06-22T06:15:21;26.70;99.90
48860;DHT22;34679;51.436;-2.518;2023-06-22T06:17:53;26.90;99.90
48860;DHT22;34679;51.436;-2.518;2023-06-22T06:20:21;27.20;99.90
48860;DHT22;34679;51.436;-2.518;2023-06-22T06:22:47;27.40;99.90
48860;DHT22;34679;51.436;-2.518;2023-06-22T06:25:14;27.60;99.90
48860;DHT22;34679;51.436;-2.518;2023-06-22T06:27:45;27.90;99.90
48860;DHT22;34679;51.436;-2.518;2023-06-22T06:30:13;28.40;99.40
48860;DHT22;34679;51.436;-2.518;2023-06-22T06:32:40;28.20;99.40
48860;DHT22;34679;51.436;-2.518;2023-06-22T06:35:07;28.50;99.20
48860;DHT22;34679;51.436;-2.518;2023-06-22T06:37:36;28.70;99.20
48860;DHT22;34679;51.436;-2.518;2023-06-22T06:40:03;29.10;98.70
48860;DHT22;34679;51.436;-2.518;2023-06-22T06:42:30;29.60;97.70
48860;DHT22;34679;51.436;-2.518;2023-06-22T06:44:56;29.90;97.30
48860;DHT22;34679;51.436;-2.518;2023-06-22T06:47:22;29.70;97.20
48860;DHT22;34679;51.436;-2.518;2023-06-22T06:49:48;29.80;97.40
48860;DHT22;34679;51.436;-2.518;2023-06-22T06:52:14;29.80;97.90
48860;DHT22;34679;51.436;-2.518;2023-06-22T06:54:40;30.40;97.30
48860;DHT22;34679;51.436;-2.518;2023-06-22T06:57:07;30.80;97.10
48860;DHT22;34679;51.436;-2.518;2023-06-22T06:59:36;30.50;96.80
48860;DHT22;34679;51.436;-2.518;2023-06-22T07:02:01;30.80;96.60
48860;DHT22;34679;51.436;-2.518;2023-06-22T07:04:27;31.00;96.40
48860;DHT22;34679;51.436;-2.518;2023-06-22T07:06:53;30.80;96.40
48860;DHT22;34679;51.436;-2.518;2023-06-22T07:09:18;30.40;95.90
48860;DHT22;34679;51.436;-2.518;2023-06-22T07:11:44;30.60;95.20
48860;DHT22;34679;51.436;-2.518;2023-06-22T07:14:10;30.40;95.30
48860;DHT22;34679;51.436;-2.518;2023-06-22T07:16:35;29.70;95.20
48860;DHT22;34679;51.436;-2.518;2023-06-22T07:19:01;29.70;95.50
48860;DHT22;34679;51.436;-2.518;2023-06-22T07:21:27;29.40;95.50
48860;DHT22;34679;51.436;-2.518;2023-06-22T07:23:52;29.60;96.10
48860;DHT22;34679;51.436;-2.518;2023-06-22T07:26:19;29.80;95.50
48860;DHT22;34679;51.436;-2.518;2023-06-22T07:28:45;30.00;95.60
48860;DHT22;34679;51.436;-2.518;2023-06-22T07:31:11;30.30;94.90
48860;DHT22;34679;51.436;-2.518;2023-06-22T07:33:36;30.30;94.80
48860;DHT22;34679;51.436;-2.518;2023-06-22T07:36:02;30.50;94.90
48860;DHT22;34679;51.436;-2.518;2023-06-22T07:38:33;31.30;94.30
48860;DHT22;34679;51.436;-2.518;2023-06-22T07:40:59;31.70;93.70
48860;DHT22;34679;51.436;-2.518;2023-06-22T07:43:25;31.40;93.50
48860;DHT22;34679;51.436;-2.518;2023-06-22T07:45:51;31.30;93.50
48860;DHT22;34679;51.436;-2.518;2023-06-22T07:48:22;32.20;93.50
48860;DHT22;34679;51.436;-2.518;2023-06-22T07:50:49;32.50;93.10
48860;DHT22;34679;51.436;-2.518;2023-06-22T07:53:15;33.20;92.60
48860;DHT22;34679;51.436;-2.518;2023-06-22T07:55:40;33.30;92.40
48860;DHT22;34679;51.436;-2.518;2023-06-22T07:58:06;33.50;92.40
48860;DHT22;34679;51.436;-2.518;2023-06-22T08:00:33;33.70;92.40
48860;DHT22;34679;51.436;-2.518;2023-06-22T08:02:58;34.10;91.90
48860;DHT22;34679;51.436;-2.518;2023-06-22T08:05:24;33.70;91.50
48860;DHT22;34679;51.436;-2.518;2023-06-22T08:07:50;33.20;91.90
48860;DHT22;34679;51.436;-2.518;2023-06-22T08:10:16;33.40;91.80
48860;DHT22;34679;51.436;-2.518;2023-06-22T08:12:42;33.40;91.60
48860;DHT22;34679;51.436;-2.518;2023-06-22T08:15:09;32.70;92.80
48860;DHT22;34679;51.436;-2.518;2023-06-22T08:17:36;32.70;92.30
48860;DHT22;34679;51.436;-2.518;2023-06-22T08:20:03;32.80;92.10
48860;DHT22;34679;51.436;-2.518;2023-06-22T08:22:35;32.80;92.10
48860;DHT22;34679;51.436;-2.518;2023-06-22T08:25:02;33.50;92.00
48860;DHT22;34679;51.436;-2.518;2023-06-22T08:27:29;33.50;91.60
48860;DHT22;34679;51.436;-2.518;2023-06-22T08:30:00;33.20;91.30
48860;DHT22;34679;51.436;-2.518;2023-06-22T08:32:30;33.20;91.60
48860;DHT22;34679;51.436;-2.518;2023-06-22T08:34:58;33.70;91.50
48860;DHT22;34679;51.436;-2.518;2023-06-22T08:37:24;33.80;91.20
48860;DHT22;34679;51.436;-2.518;2023-06-22T08:39:56;34.40;91.00
48860;DHT22;34679;51.436;-2.518;2023-06-22T08:42:22;34.20;91.00
48860;DHT22;34679;51.436;-2.518;2023-06-22T08:44:48;32.90;91.60
48860;DHT22;34679;51.436;-2.518;2023-06-22T08:47:14;32.60;91.80
48860;DHT22;34679;51.436;-2.518;2023-06-22T08:49:40;33.30;91.80
48860;DHT22;34679;51.436;-2.518;2023-06-22T08:52:06;33.60;91.30
48860;DHT22;34679;51.436;-2.518;2023-06-22T08:54:31;33.80;91.40
48860;DHT22;34679;51.436;-2.518;2023-06-22T08:56:58;34.00;91.10
48860;DHT22;34679;51.436;-2.518;2023-06-22T08:59:24;34.20;90.90
48860;DHT22;34679;51.436;-2.518;2023-06-22T09:01:49;34.50;90.40
48860;DHT22;34679;51.436;-2.518;2023-06-22T09:04:15;34.10;90.70
48860;DHT22;34679;51.436;-2.518;2023-06-22T09:06:41;33.60;90.50
48860;DHT22;34679;51.436;-2.518;2023-06-22T09:09:12;33.40;91.00
48860;DHT22;34679;51.436;-2.518;2023-06-22T09:11:38;32.90;91.10
48860;DHT22;34679;51.436;-2.518;2023-06-22T09:14:03;32.70;91.40
48860;DHT22;34679;51.436;-2.518;2023-06-22T09:16:29;33.20;91.20
48860;DHT22;34679;51.436;-2.518;2023-06-22T09:18:55;33.30;91.10
48860;DHT22;34679;51.436;-2.518;2023-06-22T09:21:21;33.60;91.10
48860;DHT22;34679;51.436;-2.518;2023-06-22T09:23:47;33.40;91.00
48860;DHT22;34679;51.436;-2.518;2023-06-22T09:26:17;33.40;90.80
48860;DHT22;34679;51.436;-2.518;2023-06-22T09:28:42;33.60;91.00
48860;DHT22;34679;51.436;-2.518;2023-06-22T09:31:08;33.30;91.00
48860;DHT22;34679;51.436;-2.518;2023-06-22T09:33:34;33.30;91.20
48860;DHT22;34679;51.436;-2.518;2023-06-22T09:36:00;33.70;90.50
48860;DHT22;34679;51.436;-2.518;2023-06-22T09:38:26;33.70;90.30
48860;DHT22;34679;51.436;-2.518;2023-06-22T09:40:51;34.40;90.20
48860;DHT22;34679;51.436;-2.518;2023-06-22T09:43:17;33.40;90.20
48860;DHT22;34679;51.436;-2.518;2023-06-22T09:45:43;32.50;90.80
48860;DHT22;34679;51.436;-2.518;2023-06-22T09:48:09;33.50;90.80
48860;DHT22;34679;51.436;-2.518;2023-06-22T09:50:35;33.60;90.50
48860;DHT22;34679;51.436;-2.518;2023-06-22T09:53:02;33.70;91.00
48860;DHT22;34679;51.436;-2.518;2023-06-22T09:55:28;33.30;90.40
48860;DHT22;34679;51.436;-2.518;2023-06-22T09:57:53;32.50;90.90
48860;DHT22;34679;51.436;-2.518;2023-06-22T10:00:21;32.60;91.00
48860;DHT22;34679;51.436;-2.518;2023-06-22T10:02:47;32.80;90.40
48860;DHT22;34679;51.436;-2.518;2023-06-22T10:05:13;33.10;90.40
48860;DHT22;34679;51.436;-2.518;2023-06-22T10:07:39;32.90;90.40
48860;DHT22;34679;51.436;-2.518;2023-06-22T10:10:08;33.10;90.50
48860;DHT22;34679;51.436;-2.518;2023-06-22T10:12:34;32.90;91.40
48860;DHT22;34679;51.436;-2.518;2023-06-22T10:15:00;33.60;91.00
48860;DHT22;34679;51.436;-2.518;2023-06-22T10:17:26;34.30;89.70
48860;DHT22;34679;51.436;-2.518;2023-06-22T10:19:51;33.20;90.00
48860;DHT22;34679;51.436;-2.518;2023-06-22T10:22:17;32.20;90.70
48860;DHT22;34679;51.436;-2.518;2023-06-22T10:24:43;29.70;92.00
48860;DHT22;34679;51.436;-2.518;2023-06-22T10:27:13;29.40;92.50
48860;DHT22;34679;51.436;-2.518;2023-06-22T10:29:39;29.30;92.80
48860;DHT22;34679;51.436;-2.518;2023-06-22T10:32:05;29.50;93.40
48860;DHT22;34679;51.436;-2.518;2023-06-22T10:34:31;29.80;93.00
48860;DHT22;34679;51.436;-2.518;2023-06-22T10:36:57;30.20;92.80
48860;DHT22;34679;51.436;-2.518;2023-06-22T10:39:22;29.80;92.60
48860;DHT22;34679;51.436;-2.518;2023-06-22T10:41:48;29.10;92.90
48860;DHT22;34679;51.436;-2.518;2023-06-22T10:44:14;28.80;93.50
48860;DHT22;34679;51.436;-2.518;2023-06-22T10:46:40;29.00;93.20
48860;DHT22;34679;51.436;-2.518;2023-06-22T10:49:05;29.10;93.60
48860;DHT22;34679;51.436;-2.518;2023-06-22T10:51:31;29.40;93.40
48860;DHT22;34679;51.436;-2.518;2023-06-22T10:53:57;29.50;93.40
48860;DHT22;34679;51.436;-2.518;2023-06-22T10:56:23;29.80;93.20
48860;DHT22;34679;51.436;-2.518;2023-06-22T10:58:50;29.60;93.80
48860;DHT22;34679;51.436;-2.518;2023-06-22T11:01:15;29.40;93.30
48860;DHT22;34679;51.436;-2.518;2023-06-22T11:03:41;28.80;93.50
48860;DHT22;34679;51.436;-2.518;2023-06-22T11:06:07;28.80;93.60
48860;DHT22;34679;51.436;-2.518;2023-06-22T11:08:32;28.50;94.20
48860;DHT22;34679;51.436;-2.518;2023-06-22T11:10:58;28.40;94.30
48860;DHT22;34679;51.436;-2.518;2023-06-22T11:13:24;28.50;94.20
48860;DHT22;34679;51.436;-2.518;2023-06-22T11:15:50;28.60;94.10
48860;DHT22;34679;51.436;-2.518;2023-06-22T11:18:16;28.70;94.40
48860;DHT22;34679;51.436;-2.518;2023-06-22T11:20:42;28.80;94.40
48860;DHT22;34679;51.436;-2.518;2023-06-22T11:23:08;29.20;94.50
48860;DHT22;34679;51.436;-2.518;2023-06-22T11:25:34;29.30;94.30
48860;DHT22;34679;51.436;-2.518;2023-06-22T11:28:04;29.70;93.90
48860;DHT22;34679;51.436;-2.518;2023-06-22T11:30:30;30.10;93.20
48860;DHT22;34679;51.436;-2.518;2023-06-22T11:32:59;30.30;93.20
48860;DHT22;34679;51.436;-2.518;2023-06-22T11:35:25;29.80;92.80
48860;DHT22;34679;51.436;-2.518;2023-06-22T11:37:51;30.10;93.20
48860;DHT22;34679;51.436;-2.518;2023-06-22T11:40:17;30.50;93.10
48860;DHT22;34679;51.436;-2.518;2023-06-22T11:42:43;30.60;92.90
48860;DHT22;34679;51.436;-2.518;2023-06-22T11:45:09;29.80;93.10
48860;DHT22;34679;51.436;-2.518;2023-06-22T11:47:35;29.70;93.50
48860;DHT22;34679;51.436;-2.518;2023-06-22T11:50:02;29.30;92.90
48860;DHT22;34679;51.436;-2.518;2023-06-22T11:52:28;29.50;92.70
48860;DHT22;34679;51.436;-2.518;2023-06-22T11:54:56;29.30;93.10
48860;DHT22;34679;51.436;-2.518;2023-06-22T11:57:22;29.30;93.60
48860;DHT22;34679;51.436;-2.518;2023-06-22T11:59:48;29.50;93.70
48860;DHT22;34679;51.436;-2.518;2023-06-22T12:02:13;29.00;92.60
48860;DHT22;34679;51.436;-2.518;2023-06-22T12:04:39;28.80;93.30
48860;DHT22;34679;51.436;-2.518;2023-06-22T12:07:05;28.50;92.80
48860;DHT22;34679;51.436;-2.518;2023-06-22T12:09:30;28.20;93.20
48860;DHT22;34679;51.436;-2.518;2023-06-22T12:11:56;28.50;93.60
48860;DHT22;34679;51.436;-2.518;2023-06-22T12:14:22;28.20;93.30
48860;DHT22;34679;51.436;-2.518;2023-06-22T12:16:47;28.40;93.90
48860;DHT22;34679;51.436;-2.518;2023-06-22T12:19:13;28.50;94.10
48860;DHT22;34679;51.436;-2.518;2023-06-22T12:21:39;28.60;93.70
48860;DHT22;34679;51.436;-2.518;2023-06-22T12:24:06;28.50;92.60
48860;DHT22;34679;51.436;-2.518;2023-06-22T12:26:32;28.70;92.60
48860;DHT22;34679;51.436;-2.518;2023-06-22T12:28:57;28.10;93.20
48860;DHT22;34679;51.436;-2.518;2023-06-22T12:31:23;28.30;93.60
48860;DHT22;34679;51.436;-2.518;2023-06-22T12:33:49;28.70;93.00
48860;DHT22;34679;51.436;-2.518;2023-06-22T12:36:14;28.90;93.40
48860;DHT22;34679;51.436;-2.518;2023-06-22T12:38:41;29.10;92.70
48860;DHT22;34679;51.436;-2.518;2023-06-22T12:41:07;29.30;93.20
48860;DHT22;34679;51.436;-2.518;2023-06-22T12:43:33;29.30;93.20
48860;DHT22;34679;51.436;-2.518;2023-06-22T12:45:59;29.60;93.00
48860;DHT22;34679;51.436;-2.518;2023-06-22T12:48:26;29.70;92.20
48860;DHT22;34679;51.436;-2.518;2023-06-22T12:50:52;29.30;92.40
48860;DHT22;34679;51.436;-2.518;2023-06-22T12:53:18;28.90;93.20
48860;DHT22;34679;51.436;-2.518;2023-06-22T12:55:44;28.80;93.30
48860;DHT22;34679;51.436;-2.518;2023-06-22T12:58:09;28.60;93.60
48860;DHT22;34679;51.436;-2.518;2023-06-22T13:03:57;28.00;95.50
48860;DHT22;34679;51.436;-2.518;2023-06-22T13:06:23;27.30;95.30
48860;DHT22;34679;51.436;-2.518;2023-06-22T13:08:49;27.20;95.50
48860;DHT22;34679;51.436;-2.518;2023-06-22T13:11:14;27.40;95.00
48860;DHT22;34679;51.436;-2.518;2023-06-22T13:13:40;27.60;95.50
48860;DHT22;34679;51.436;-2.518;2023-06-22T13:16:07;27.90;95.50
48860;DHT22;34679;51.436;-2.518;2023-06-22T13:18:32;28.40;95.70
48860;DHT22;34679;51.436;-2.518;2023-06-22T13:21:04;28.50;94.90
48860;DHT22;34679;51.436;-2.518;2023-06-22T13:23:29;28.30;95.50
48860;DHT22;34679;51.436;-2.518;2023-06-22T13:25:55;28.20;94.90
48860;DHT22;34679;51.436;-2.518;2023-06-22T13:28:21;28.20;95.90
48860;DHT22;34679;51.436;-2.518;2023-06-22T13:30:47;28.00;95.00
48860;DHT22;34679;51.436;-2.518;2023-06-22T13:33:13;28.10;95.20
48860;DHT22;34679;51.436;-2.518;2023-06-22T13:35:39;27.90;95.30
48860;DHT22;34679;51.436;-2.518;2023-06-22T13:38:08;27.90;95.10
48860;DHT22;34679;51.436;-2.518;2023-06-22T13:40:34;28.10;94.20
48860;DHT22;34679;51.436;-2.518;2023-06-22T13:43:00;28.00;94.80
48860;DHT22;34679;51.436;-2.518;2023-06-22T13:45:26;28.00;94.80
48860;DHT22;34679;51.436;-2.518;2023-06-22T13:47:52;28.30;94.90
48860;DHT22;34679;51.436;-2.518;2023-06-22T13:50:18;28.50;95.10
48860;DHT22;34679;51.436;-2.518;2023-06-22T13:52:44;28.80;94.90
48860;DHT22;34679;51.436;-2.518;2023-06-22T13:55:09;28.20;94.50
48860;DHT22;34679;51.436;-2.518;2023-06-22T13:57:35;28.10;94.20
48860;DHT22;34679;51.436;-2.518;2023-06-22T14:00:03;27.90;94.80
48860;DHT22;34679;51.436;-2.518;2023-06-22T14:02:30;27.90;94.80
48860;DHT22;34679;51.436;-2.518;2023-06-22T14:04:56;27.50;94.70
48860;DHT22;34679;51.436;-2.518;2023-06-22T14:07:22;27.20;95.10
48860;DHT22;34679;51.436;-2.518;2023-06-22T14:09:49;27.50;95.40
48860;DHT22;34679;51.436;-2.518;2023-06-22T14:12:15;27.20;95.20
48860;DHT22;34679;51.436;-2.518;2023-06-22T14:14:43;27.50;94.90
48860;DHT22;34679;51.436;-2.518;2023-06-22T14:17:09;27.50;94.30
48860;DHT22;34679;51.436;-2.518;2023-06-22T14:19:35;27.60;94.70
48860;DHT22;34679;51.436;-2.518;2023-06-22T14:22:01;27.70;94.80
48860;DHT22;34679;51.436;-2.518;2023-06-22T14:24:27;27.50;94.40
48860;DHT22;34679;51.436;-2.518;2023-06-22T14:26:56;27.50;94.20
48860;DHT22;34679;51.436;-2.518;2023-06-22T14:29:22;27.30;95.30
48860;DHT22;34679;51.436;-2.518;2023-06-22T14:31:48;27.40;95.10
48860;DHT22;34679;51.436;-2.518;2023-06-22T14:34:15;26.90;95.00
48860;DHT22;34679;51.436;-2.518;2023-06-22T14:36:41;26.50;95.10
48860;DHT22;34679;51.436;-2.518;2023-06-22T14:39:08;26.60;95.10
48860;DHT22;34679;51.436;-2.518;2023-06-22T14:41:33;26.80;94.80
48860;DHT22;34679;51.436;-2.518;2023-06-22T14:43:59;26.80;94.50
48860;DHT22;34679;51.436;-2.518;2023-06-22T14:46:25;26.60;94.40
48860;DHT22;34679;51.436;-2.518;2023-06-22T14:48:50;26.40;94.60
48860;DHT22;34679;51.436;-2.518;2023-06-22T14:51:16;26.30;94.80
48860;DHT22;34679;51.436;-2.518;2023-06-22T14:53:44;26.20;94.60
48860;DHT22;34679;51.436;-2.518;2023-06-22T14:56:10;26.40;94.70
48860;DHT22;34679;51.436;-2.518;2023-06-22T14:58:35;26.70;94.30
48860;DHT22;34679;51.436;-2.518;2023-06-22T15:01:02;26.40;94.20
48860;DHT22;34679;51.436;-2.518;2023-06-22T15:03:31;26.70;94.10
48860;DHT22;34679;51.436;-2.518;2023-06-22T15:05:58;26.90;93.80
48860;DHT22;34679;51.436;-2.518;2023-06-22T15:08:24;26.80;93.50
48860;DHT22;34679;51.436;-2.518;2023-06-22T15:10:51;26.70;93.80
48860;DHT22;34679;51.436;-2.518;2023-06-22T15:13:17;26.70;93.40
48860;DHT22;34679;51.436;-2.518;2023-06-22T15:15:46;26.70;93.80
48860;DHT22;34679;51.436;-2.518;2023-06-22T15:18:16;26.90;93.50
48860;DHT22;34679;51.436;-2.518;2023-06-22T15:20:42;26.70;93.30
48860;DHT22;34679;51.436;-2.518;2023-06-22T15:23:12;26.70;93.50